sensor_id;sensor_type;location;lat;lon;timestamp;P1;durP1;ratioP1;P2;durP2;ratioP2
12171;SDS011;6149;52.418;13.668;2023-03-23T00:01:29;4.17;;;2.53;;
12171;SDS011;6149;52.418;13.668;2023-03-23T00:04:03;5.53;;;2.33;;
12171;SDS011;6149;52.418;13.668;2023-03-23T00:06:32;4.07;;;2.50;;
12171;SDS011;6149;52.418;13.668;2023-03-23T00:09:00;2.77;;;2.13;;
12171;SDS011;6149;52.418;13.668;2023-03-23T00:11:31;3.53;;;2.37;;
12171;SDS011;6149;52.418;13.668;2023-03-23T00:14:01;3.50;;;2.60;;
12171;SDS011;6149;52.418;13.668;2023-03-23T00:16:32;2.60;;;2.33;;
12171;SDS011;6149;52.418;13.668;2023-03-23T00:19:05;3.93;;;2.40;;
12171;SDS011;6149;52.418;13.668;2023-03-23T00:21:36;2.20;;;1.97;;
12171;SDS011;6149;52.418;13.668;2023-03-23T00:24:07;5.00;;;2.60;;
12171;SDS011;6149;52.418;13.668;2023-03-23T00:26:38;2.90;;;2.30;;
12171;SDS011;6149;52.418;13.668;2023-03-23T00:29:14;2.67;;;2.30;;
12171;SDS011;6149;52.418;13.668;2023-03-23T00:31:48;2.40;;;2.20;;
12171;SDS011;6149;52.418;13.668;2023-03-23T00:34:20;2.30;;;2.00;;
12171;SDS011;6149;52.418;13.668;2023-03-23T00:36:52;3.30;;;2.27;;
12171;SDS011;6149;52.418;13.668;2023-03-23T00:39:23;3.70;;;2.10;;
12171;SDS011;6149;52.418;13.668;2023-03-23T00:41:53;3.03;;;2.30;;
12171;SDS011;6149;52.418;13.668;2023-03-23T00:44:28;5.47;;;2.30;;
12171;SDS011;6149;52.418;13.668;2023-03-23T00:46:58;2.40;;;2.20;;
12171;SDS011;6149;52.418;13.668;2023-03-23T00:49:26;2.93;;;2.30;;
12171;SDS011;6149;52.418;13.668;2023-03-23T00:51:56;3.03;;;2.10;;
12171;SDS011;6149;52.418;13.668;2023-03-23T00:54:25;3.00;;;2.20;;
12171;SDS011;6149;52.418;13.668;2023-03-23T00:56:53;3.57;;;2.10;;
12171;SDS011;6149;52.418;13.668;2023-03-23T00:59:20;2.70;;;1.93;;
12171;SDS011;6149;52.418;13.668;2023-03-23T01:01:51;2.43;;;2.03;;
12171;SDS011;6149;52.418;13.668;2023-03-23T01:04:21;2.40;;;2.20;;
12171;SDS011;6149;52.418;13.668;2023-03-23T01:06:49;2.73;;;2.30;;
12171;SDS011;6149;52.418;13.668;2023-03-23T01:09:22;2.17;;;1.80;;
12171;SDS011;6149;52.418;13.668;2023-03-23T01:11:53;3.60;;;2.30;;
12171;SDS011;6149;52.418;13.668;2023-03-23T01:14:22;2.63;;;1.93;;
12171;SDS011;6149;52.418;13.668;2023-03-23T01:16:52;3.13;;;2.50;;
12171;SDS011;6149;52.418;13.668;2023-03-23T01:19:20;5.33;;;1.97;;
12171;SDS011;6149;52.418;13.668;2023-03-23T01:21:50;3.60;;;2.30;;
12171;SDS011;6149;52.418;13.668;2023-03-23T01:24:18;2.60;;;2.13;;
12171;SDS011;6149;52.418;13.668;2023-03-23T01:26:47;2.10;;;1.90;;
12171;SDS011;6149;52.418;13.668;2023-03-23T01:29:15;2.70;;;2.13;;
12171;SDS011;6149;52.418;13.668;2023-03-23T01:31:44;2.47;;;1.83;;
12171;SDS011;6149;52.418;13.668;2023-03-23T01:34:14;2.37;;;1.97;;
12171;SDS011;6149;52.418;13.668;2023-03-23T01:36:44;4.53;;;2.20;;
12171;SDS011;6149;52.418;13.668;2023-03-23T01:39:12;3.03;;;2.10;;
12171;SDS011;6149;52.418;13.668;2023-03-23T01:41:39;3.93;;;2.57;;
12171;SDS011;6149;52.418;13.668;2023-03-23T01:44:59;3.33;;;2.27;;
12171;SDS011;6149;52.418;13.668;2023-03-23T01:47:37;2.17;;;1.60;;
12171;SDS011;6149;52.418;13.668;2023-03-23T01:50:06;2.17;;;1.93;;
12171;SDS011;6149;52.418;13.668;2023-03-23T01:52:34;4.07;;;2.20;;
12171;SDS011;6149;52.418;13.668;2023-03-23T01:55:02;2.93;;;1.83;;
12171;SDS011;6149;52.418;13.668;2023-03-23T01:57:31;2.53;;;2.03;;
12171;SDS011;6149;52.418;13.668;2023-03-23T02:00:02;2.77;;;2.17;;
12171;SDS011;6149;52.418;13.668;2023-03-23T02:02:41;2.30;;;1.83;;
12171;SDS011;6149;52.418;13.668;2023-03-23T02:05:14;4.07;;;2.00;;
12171;SDS011;6149;52.418;13.668;2023-03-23T02:07:50;2.20;;;2.00;;
12171;SDS011;6149;52.418;13.668;2023-03-23T02:10:19;3.67;;;2.40;;
12171;SDS011;6149;52.418;13.668;2023-03-23T02:12:46;3.80;;;2.10;;
12171;SDS011;6149;52.418;13.668;2023-03-23T02:15:16;2.40;;;2.00;;
12171;SDS011;6149;52.418;13.668;2023-03-23T02:17:48;2.70;;;2.17;;
12171;SDS011;6149;52.418;13.668;2023-03-23T02:20:32;3.27;;;2.30;;
12171;SDS011;6149;52.418;13.668;2023-03-23T02:26:47;2.53;;;2.03;;
12171;SDS011;6149;52.418;13.668;2023-03-23T02:29:29;3.83;;;2.20;;
12171;SDS011;6149;52.418;13.668;2023-03-23T02:32:30;3.50;;;2.20;;
12171;SDS011;6149;52.418;13.668;2023-03-23T02:35:27;3.37;;;2.27;;
12171;SDS011;6149;52.418;13.668;2023-03-23T02:38:01;4.00;;;2.23;;
12171;SDS011;6149;52.418;13.668;2023-03-23T02:40:38;3.47;;;2.27;;
12171;SDS011;6149;52.418;13.668;2023-03-23T02:43:12;3.57;;;2.53;;
12171;SDS011;6149;52.418;13.668;2023-03-23T02:45:44;3.00;;;2.20;;
12171;SDS011;6149;52.418;13.668;2023-03-23T02:48:15;2.50;;;2.17;;
12171;SDS011;6149;52.418;13.668;2023-03-23T02:50:51;2.53;;;2.27;;
12171;SDS011;6149;52.418;13.668;2023-03-23T02:53:22;2.93;;;2.20;;
12171;SDS011;6149;52.418;13.668;2023-03-23T02:55:54;2.40;;;2.20;;
12171;SDS011;6149;52.418;13.668;2023-03-23T02:58:24;3.80;;;2.53;;
12171;SDS011;6149;52.418;13.668;2023-03-23T03:00:53;3.37;;;2.20;;
12171;SDS011;6149;52.418;13.668;2023-03-23T03:03:23;3.13;;;2.37;;
12171;SDS011;6149;52.418;13.668;2023-03-23T03:05:58;4.83;;;2.53;;
12171;SDS011;6149;52.418;13.668;2023-03-23T03:08:39;3.87;;;2.40;;
12171;SDS011;6149;52.418;13.668;2023-03-23T03:11:17;2.80;;;2.10;;
12171;SDS011;6149;52.418;13.668;2023-03-23T03:13:48;3.10;;;2.20;;
12171;SDS011;6149;52.418;13.668;2023-03-23T03:16:23;3.63;;;1.97;;
12171;SDS011;6149;52.418;13.668;2023-03-23T03:18:56;4.47;;;2.30;;
12171;SDS011;6149;52.418;13.668;2023-03-23T03:21:33;3.37;;;2.00;;
12171;SDS011;6149;52.418;13.668;2023-03-23T03:24:05;2.40;;;1.93;;
12171;SDS011;6149;52.418;13.668;2023-03-23T03:26:37;3.60;;;1.97;;
12171;SDS011;6149;52.418;13.668;2023-03-23T03:29:12;2.60;;;1.90;;
12171;SDS011;6149;52.418;13.668;2023-03-23T03:31:40;2.80;;;1.80;;
12171;SDS011;6149;52.418;13.668;2023-03-23T03:34:14;2.17;;;1.83;;
12171;SDS011;6149;52.418;13.668;2023-03-23T03:36:51;2.27;;;1.50;;
12171;SDS011;6149;52.418;13.668;2023-03-23T03:39:25;2.30;;;1.80;;
12171;SDS011;6149;52.418;13.668;2023-03-23T03:41:54;2.97;;;1.83;;
12171;SDS011;6149;52.418;13.668;2023-03-23T03:44:22;2.37;;;1.70;;
12171;SDS011;6149;52.418;13.668;2023-03-23T03:46:50;2.00;;;1.80;;
12171;SDS011;6149;52.418;13.668;2023-03-23T03:49:20;2.80;;;1.70;;
12171;SDS011;6149;52.418;13.668;2023-03-23T03:51:56;2.13;;;1.43;;
12171;SDS011;6149;52.418;13.668;2023-03-23T03:54:24;3.80;;;1.80;;
12171;SDS011;6149;52.418;13.668;2023-03-23T03:56:52;3.90;;;2.10;;
12171;SDS011;6149;52.418;13.668;2023-03-23T03:59:24;1.70;;;1.53;;
12171;SDS011;6149;52.418;13.668;2023-03-23T04:01:53;2.47;;;1.80;;
12171;SDS011;6149;52.418;13.668;2023-03-23T04:04:21;2.33;;;1.73;;
12171;SDS011;6149;52.418;13.668;2023-03-23T04:06:48;2.10;;;1.63;;
12171;SDS011;6149;52.418;13.668;2023-03-23T04:09:18;1.60;;;1.50;;
12171;SDS011;6149;52.418;13.668;2023-03-23T04:11:47;2.70;;;1.60;;
12171;SDS011;6149;52.418;13.668;2023-03-23T04:14:19;2.73;;;1.60;;
12171;SDS011;6149;52.418;13.668;2023-03-23T04:16:46;1.77;;;1.60;;
12171;SDS011;6149;52.418;13.668;2023-03-23T04:19:23;3.10;;;1.77;;
12171;SDS011;6149;52.418;13.668;2023-03-23T04:21:51;1.63;;;1.53;;
12171;SDS011;6149;52.418;13.668;2023-03-23T04:24:20;2.20;;;1.47;;
12171;SDS011;6149;52.418;13.668;2023-03-23T04:26:51;2.13;;;1.60;;
12171;SDS011;6149;52.418;13.668;2023-03-23T04:29:20;1.37;;;1.27;;
12171;SDS011;6149;52.418;13.668;2023-03-23T04:31:50;2.70;;;1.50;;
12171;SDS011;6149;52.418;13.668;2023-03-23T04:34:21;2.03;;;1.50;;
12171;SDS011;6149;52.418;13.668;2023-03-23T04:36:50;2.73;;;1.53;;
12171;SDS011;6149;52.418;13.668;2023-03-23T04:39:19;1.70;;;1.37;;
12171;SDS011;6149;52.418;13.668;2023-03-23T04:41:47;3.63;;;1.53;;
12171;SDS011;6149;52.418;13.668;2023-03-23T04:44:17;2.60;;;1.50;;
12171;SDS011;6149;52.418;13.668;2023-03-23T04:46:47;3.20;;;1.53;;
12171;SDS011;6149;52.418;13.668;2023-03-23T04:49:20;2.60;;;1.43;;
12171;SDS011;6149;52.418;13.668;2023-03-23T04:51:50;3.53;;;1.60;;
12171;SDS011;6149;52.418;13.668;2023-03-23T04:54:22;2.17;;;1.80;;
12171;SDS011;6149;52.418;13.668;2023-03-23T04:56:50;2.60;;;1.50;;
12171;SDS011;6149;52.418;13.668;2023-03-23T04:59:18;2.53;;;1.80;;
12171;SDS011;6149;52.418;13.668;2023-03-23T05:01:54;3.03;;;2.07;;
12171;SDS011;6149;52.418;13.668;2023-03-23T05:04:22;2.03;;;1.30;;
12171;SDS011;6149;52.418;13.668;2023-03-23T05:06:51;2.13;;;1.60;;
12171;SDS011;6149;52.418;13.668;2023-03-23T05:09:19;1.90;;;1.60;;
12171;SDS011;6149;52.418;13.668;2023-03-23T05:11:48;1.90;;;1.60;;
12171;SDS011;6149;52.418;13.668;2023-03-23T05:14:17;1.97;;;1.60;;
12171;SDS011;6149;52.418;13.668;2023-03-23T05:16:47;2.37;;;1.50;;
12171;SDS011;6149;52.418;13.668;2023-03-23T05:19:18;3.90;;;1.53;;
12171;SDS011;6149;52.418;13.668;2023-03-23T05:21:47;3.93;;;1.67;;
12171;SDS011;6149;52.418;13.668;2023-03-23T05:24:15;1.73;;;1.50;;
12171;SDS011;6149;52.418;13.668;2023-03-23T05:26:44;3.07;;;1.80;;
12171;SDS011;6149;52.418;13.668;2023-03-23T05:29:26;2.93;;;1.80;;
12171;SDS011;6149;52.418;13.668;2023-03-23T05:31:56;2.47;;;1.73;;
12171;SDS011;6149;52.418;13.668;2023-03-23T05:34:25;4.07;;;1.90;;
12171;SDS011;6149;52.418;13.668;2023-03-23T05:36:53;3.23;;;1.73;;
12171;SDS011;6149;52.418;13.668;2023-03-23T05:39:23;1.67;;;1.37;;
12171;SDS011;6149;52.418;13.668;2023-03-23T05:41:51;3.30;;;1.50;;
12171;SDS011;6149;52.418;13.668;2023-03-23T05:44:21;2.33;;;1.50;;
12171;SDS011;6149;52.418;13.668;2023-03-23T05:46:49;2.50;;;1.60;;
12171;SDS011;6149;52.418;13.668;2023-03-23T05:49:16;4.33;;;2.20;;
12171;SDS011;6149;52.418;13.668;2023-03-23T05:51:45;2.40;;;1.50;;
12171;SDS011;6149;52.418;13.668;2023-03-23T05:54:16;1.67;;;1.57;;
12171;SDS011;6149;52.418;13.668;2023-03-23T05:56:46;2.30;;;1.60;;
12171;SDS011;6149;52.418;13.668;2023-03-23T05:59:16;3.20;;;1.80;;
12171;SDS011;6149;52.418;13.668;2023-03-23T06:01:51;3.07;;;2.00;;
12171;SDS011;6149;52.418;13.668;2023-03-23T06:04:21;4.07;;;1.70;;
12171;SDS011;6149;52.418;13.668;2023-03-23T06:06:51;2.77;;;1.70;;
12171;SDS011;6149;52.418;13.668;2023-03-23T06:09:21;3.13;;;1.87;;
12171;SDS011;6149;52.418;13.668;2023-03-23T06:11:51;1.90;;;1.70;;
12171;SDS011;6149;52.418;13.668;2023-03-23T06:14:21;3.43;;;2.27;;
12171;SDS011;6149;52.418;13.668;2023-03-23T06:16:49;4.20;;;2.10;;
12171;SDS011;6149;52.418;13.668;2023-03-23T06:19:18;3.67;;;2.27;;
12171;SDS011;6149;52.418;13.668;2023-03-23T06:21:46;4.80;;;2.30;;
12171;SDS011;6149;52.418;13.668;2023-03-23T06:24:14;3.37;;;2.53;;
12171;SDS011;6149;52.418;13.668;2023-03-23T06:26:42;3.90;;;2.40;;
12171;SDS011;6149;52.418;13.668;2023-03-23T06:29:10;4.97;;;2.70;;
12171;SDS011;6149;52.418;13.668;2023-03-23T06:31:39;5.40;;;3.77;;
12171;SDS011;6149;52.418;13.668;2023-03-23T06:34:12;6.73;;;4.27;;
12171;SDS011;6149;52.418;13.668;2023-03-23T06:36:40;5.60;;;3.03;;
12171;SDS011;6149;52.418;13.668;2023-03-23T06:39:16;3.13;;;2.70;;
12171;SDS011;6149;52.418;13.668;2023-03-23T06:41:46;4.70;;;2.70;;
12171;SDS011;6149;52.418;13.668;2023-03-23T06:44:14;4.20;;;2.90;;
12171;SDS011;6149;52.418;13.668;2023-03-23T06:46:42;3.23;;;2.60;;
12171;SDS011;6149;52.418;13.668;2023-03-23T06:49:10;4.83;;;3.57;;
12171;SDS011;6149;52.418;13.668;2023-03-23T06:51:41;5.50;;;3.17;;
12171;SDS011;6149;52.418;13.668;2023-03-23T06:54:16;6.83;;;3.03;;
12171;SDS011;6149;52.418;13.668;2023-03-23T06:56:46;5.10;;;2.80;;
12171;SDS011;6149;52.418;13.668;2023-03-23T06:59:16;5.63;;;3.57;;
12171;SDS011;6149;52.418;13.668;2023-03-23T07:01:46;5.60;;;3.63;;
12171;SDS011;6149;52.418;13.668;2023-03-23T07:04:17;8.53;;;3.70;;
12171;SDS011;6149;52.418;13.668;2023-03-23T07:06:51;4.80;;;4.20;;
12171;SDS011;6149;52.418;13.668;2023-03-23T07:09:17;8.83;;;4.70;;
12171;SDS011;6149;52.418;13.668;2023-03-23T07:11:47;5.93;;;4.30;;
12171;SDS011;6149;52.418;13.668;2023-03-23T07:14:18;7.37;;;4.77;;
12171;SDS011;6149;52.418;13.668;2023-03-23T07:16:51;7.83;;;4.33;;
12171;SDS011;6149;52.418;13.668;2023-03-23T07:19:20;6.00;;;4.40;;
12171;SDS011;6149;52.418;13.668;2023-03-23T07:21:49;5.33;;;3.80;;
12171;SDS011;6149;52.418;13.668;2023-03-23T07:24:18;3.77;;;3.37;;
12171;SDS011;6149;52.418;13.668;2023-03-23T07:26:46;7.60;;;3.57;;
12171;SDS011;6149;52.418;13.668;2023-03-23T07:29:14;6.43;;;3.30;;
12171;SDS011;6149;52.418;13.668;2023-03-23T07:31:42;6.13;;;3.30;;
12171;SDS011;6149;52.418;13.668;2023-03-23T07:34:10;4.23;;;3.30;;
12171;SDS011;6149;52.418;13.668;2023-03-23T07:36:39;5.30;;;3.40;;
12171;SDS011;6149;52.418;13.668;2023-03-23T07:39:08;5.87;;;3.17;;
12171;SDS011;6149;52.418;13.668;2023-03-23T07:41:36;7.40;;;3.27;;
12171;SDS011;6149;52.418;13.668;2023-03-23T07:44:04;4.43;;;3.07;;
12171;SDS011;6149;52.418;13.668;2023-03-23T07:46:33;5.00;;;3.13;;
12171;SDS011;6149;52.418;13.668;2023-03-23T07:49:05;6.80;;;3.60;;
12171;SDS011;6149;52.418;13.668;2023-03-23T07:51:34;5.13;;;3.43;;
12171;SDS011;6149;52.418;13.668;2023-03-23T07:54:05;5.17;;;3.47;;
12171;SDS011;6149;52.418;13.668;2023-03-23T07:56:35;7.40;;;3.63;;
12171;SDS011;6149;52.418;13.668;2023-03-23T07:59:06;5.17;;;3.53;;
12171;SDS011;6149;52.418;13.668;2023-03-23T08:01:34;4.17;;;3.07;;
12171;SDS011;6149;52.418;13.668;2023-03-23T08:04:02;4.87;;;3.13;;
12171;SDS011;6149;52.418;13.668;2023-03-23T08:06:32;6.23;;;3.70;;
12171;SDS011;6149;52.418;13.668;2023-03-23T08:09:01;5.37;;;3.20;;
12171;SDS011;6149;52.418;13.668;2023-03-23T08:11:34;5.63;;;3.33;;
12171;SDS011;6149;52.418;13.668;2023-03-23T08:14:03;6.07;;;3.63;;
12171;SDS011;6149;52.418;13.668;2023-03-23T08:16:33;5.53;;;3.50;;
12171;SDS011;6149;52.418;13.668;2023-03-23T08:19:01;4.77;;;3.20;;
12171;SDS011;6149;52.418;13.668;2023-03-23T08:21:31;5.00;;;3.30;;
12171;SDS011;6149;52.418;13.668;2023-03-23T08:23:59;4.67;;;3.20;;
12171;SDS011;6149;52.418;13.668;2023-03-23T08:26:27;5.63;;;3.13;;
12171;SDS011;6149;52.418;13.668;2023-03-23T08:28:57;3.43;;;3.10;;
12171;SDS011;6149;52.418;13.668;2023-03-23T08:31:24;4.03;;;3.40;;
12171;SDS011;6149;52.418;13.668;2023-03-23T08:33:53;5.73;;;3.60;;
12171;SDS011;6149;52.418;13.668;2023-03-23T08:36:22;4.60;;;3.30;;
12171;SDS011;6149;52.418;13.668;2023-03-23T08:38:50;4.90;;;2.97;;
12171;SDS011;6149;52.418;13.668;2023-03-23T08:41:17;4.70;;;2.80;;
12171;SDS011;6149;52.418;13.668;2023-03-23T08:43:46;3.93;;;2.87;;
12171;SDS011;6149;52.418;13.668;2023-03-23T08:46:30;4.00;;;3.20;;
12171;SDS011;6149;52.418;13.668;2023-03-23T08:48:58;6.73;;;3.17;;
12171;SDS011;6149;52.418;13.668;2023-03-23T08:51:26;4.37;;;2.80;;
12171;SDS011;6149;52.418;13.668;2023-03-23T08:53:54;4.13;;;2.90;;
12171;SDS011;6149;52.418;13.668;2023-03-23T08:56:22;3.63;;;2.60;;
12171;SDS011;6149;52.418;13.668;2023-03-23T08:58:50;6.13;;;3.30;;
12171;SDS011;6149;52.418;13.668;2023-03-23T09:01:30;3.83;;;3.10;;
12171;SDS011;6149;52.418;13.668;2023-03-23T09:03:58;4.50;;;3.23;;
12171;SDS011;6149;52.418;13.668;2023-03-23T09:06:26;4.53;;;3.23;;
12171;SDS011;6149;52.418;13.668;2023-03-23T09:08:53;4.47;;;3.20;;
12171;SDS011;6149;52.418;13.668;2023-03-23T09:11:22;3.73;;;2.60;;
12171;SDS011;6149;52.418;13.668;2023-03-23T09:13:49;6.37;;;3.20;;
12171;SDS011;6149;52.418;13.668;2023-03-23T09:16:22;4.17;;;3.30;;
12171;SDS011;6149;52.418;13.668;2023-03-23T09:18:53;3.97;;;2.90;;
12171;SDS011;6149;52.418;13.668;2023-03-23T09:21:21;4.37;;;3.13;;
12171;SDS011;6149;52.418;13.668;2023-03-23T09:23:49;5.37;;;3.07;;
12171;SDS011;6149;52.418;13.668;2023-03-23T09:26:18;3.00;;;2.67;;
12171;SDS011;6149;52.418;13.668;2023-03-23T09:28:54;3.87;;;2.60;;
12171;SDS011;6149;52.418;13.668;2023-03-23T09:31:25;4.13;;;2.80;;
12171;SDS011;6149;52.418;13.668;2023-03-23T09:33:53;3.57;;;2.83;;
12171;SDS011;6149;52.418;13.668;2023-03-23T09:36:23;2.87;;;2.33;;
12171;SDS011;6149;52.418;13.668;2023-03-23T09:38:52;4.47;;;2.30;;
12171;SDS011;6149;52.418;13.668;2023-03-23T09:41:28;2.60;;;2.40;;
12171;SDS011;6149;52.418;13.668;2023-03-23T09:44:14;4.60;;;2.20;;
12171;SDS011;6149;52.418;13.668;2023-03-23T09:46:55;4.27;;;2.33;;
12171;SDS011;6149;52.418;13.668;2023-03-23T09:49:30;2.70;;;1.87;;
12171;SDS011;6149;52.418;13.668;2023-03-23T09:52:03;4.60;;;2.50;;
12171;SDS011;6149;52.418;13.668;2023-03-23T09:54:38;3.13;;;2.13;;
12171;SDS011;6149;52.418;13.668;2023-03-23T09:57:11;2.10;;;1.80;;
12171;SDS011;6149;52.418;13.668;2023-03-23T09:59:45;3.00;;;1.90;;
12171;SDS011;6149;52.418;13.668;2023-03-23T10:02:24;3.00;;;1.90;;
12171;SDS011;6149;52.418;13.668;2023-03-23T10:04:58;2.70;;;1.50;;
12171;SDS011;6149;52.418;13.668;2023-03-23T10:07:53;3.73;;;1.80;;
12171;SDS011;6149;52.418;13.668;2023-03-23T10:10:22;2.97;;;1.90;;
12171;SDS011;6149;52.418;13.668;2023-03-23T10:13:08;3.20;;;1.60;;
12171;SDS011;6149;52.418;13.668;2023-03-23T10:15:48;1.70;;;1.60;;
12171;SDS011;6149;52.418;13.668;2023-03-23T10:18:24;2.70;;;1.80;;
12171;SDS011;6149;52.418;13.668;2023-03-23T10:21:01;3.43;;;1.73;;
12171;SDS011;6149;52.418;13.668;2023-03-23T10:26:25;2.73;;;1.53;;
12171;SDS011;6149;52.418;13.668;2023-03-23T10:29:08;2.63;;;1.80;;
12171;SDS011;6149;52.418;13.668;2023-03-23T10:31:45;2.60;;;1.70;;
12171;SDS011;6149;52.418;13.668;2023-03-23T10:34:24;2.10;;;1.60;;
12171;SDS011;6149;52.418;13.668;2023-03-23T10:37:01;1.67;;;1.40;;
12171;SDS011;6149;52.418;13.668;2023-03-23T10:39:40;2.30;;;1.60;;
12171;SDS011;6149;52.418;13.668;2023-03-23T10:42:24;2.33;;;1.53;;
12171;SDS011;6149;52.418;13.668;2023-03-23T10:44:54;1.70;;;1.50;;
12171;SDS011;6149;52.418;13.668;2023-03-23T10:47:24;1.77;;;1.40;;
12171;SDS011;6149;52.418;13.668;2023-03-23T10:50:05;3.90;;;1.37;;
12171;SDS011;6149;52.418;13.668;2023-03-23T10:52:41;1.93;;;1.50;;
12171;SDS011;6149;52.418;13.668;2023-03-23T10:55:10;1.87;;;1.50;;
12171;SDS011;6149;52.418;13.668;2023-03-23T10:57:41;2.97;;;1.70;;
12171;SDS011;6149;52.418;13.668;2023-03-23T11:00:17;1.93;;;1.50;;
12171;SDS011;6149;52.418;13.668;2023-03-23T11:03:00;3.87;;;1.90;;
12171;SDS011;6149;52.418;13.668;2023-03-23T11:05:35;2.23;;;1.60;;
12171;SDS011;6149;52.418;13.668;2023-03-23T11:08:10;2.17;;;1.90;;
12171;SDS011;6149;52.418;13.668;2023-03-23T11:10:47;2.07;;;1.57;;
12171;SDS011;6149;52.418;13.668;2023-03-23T11:13:20;2.60;;;1.40;;
12171;SDS011;6149;52.418;13.668;2023-03-23T11:15:55;2.80;;;1.60;;
12171;SDS011;6149;52.418;13.668;2023-03-23T11:18:24;1.87;;;1.43;;
12171;SDS011;6149;52.418;13.668;2023-03-23T11:21:04;2.33;;;1.50;;
12171;SDS011;6149;52.418;13.668;2023-03-23T11:23:35;1.77;;;1.60;;
12171;SDS011;6149;52.418;13.668;2023-03-23T11:26:13;2.00;;;1.60;;
12171;SDS011;6149;52.418;13.668;2023-03-23T11:28:46;2.80;;;1.73;;
12171;SDS011;6149;52.418;13.668;2023-03-23T11:31:22;2.93;;;1.90;;
12171;SDS011;6149;52.418;13.668;2023-03-23T11:33:55;2.40;;;1.80;;
12171;SDS011;6149;52.418;13.668;2023-03-23T11:36:32;3.30;;;1.90;;
12171;SDS011;6149;52.418;13.668;2023-03-23T11:39:16;1.90;;;1.57;;
12171;SDS011;6149;52.418;13.668;2023-03-23T11:41:52;2.57;;;1.60;;
12171;SDS011;6149;52.418;13.668;2023-03-23T11:44:21;1.30;;;1.20;;
12171;SDS011;6149;52.418;13.668;2023-03-23T11:46:58;1.93;;;1.40;;
12171;SDS011;6149;52.418;13.668;2023-03-23T11:49:35;4.43;;;1.53;;
12171;SDS011;6149;52.418;13.668;2023-03-23T11:52:15;4.40;;;1.80;;
12171;SDS011;6149;52.418;13.668;2023-03-23T11:54:54;2.97;;;1.60;;
12171;SDS011;6149;52.418;13.668;2023-03-23T11:57:31;2.27;;;1.60;;
12171;SDS011;6149;52.418;13.668;2023-03-23T11:59:59;2.80;;;1.70;;
12171;SDS011;6149;52.418;13.668;2023-03-23T12:02:41;2.67;;;1.60;;
12171;SDS011;6149;52.418;13.668;2023-03-23T12:05:28;4.23;;;1.87;;
12171;SDS011;6149;52.418;13.668;2023-03-23T12:08:10;3.97;;;1.80;;
12171;SDS011;6149;52.418;13.668;2023-03-23T12:10:59;2.10;;;1.60;;
12171;SDS011;6149;52.418;13.668;2023-03-23T12:13:42;3.50;;;1.47;;
12171;SDS011;6149;52.418;13.668;2023-03-23T12:16:30;2.80;;;2.07;;
12171;SDS011;6149;52.418;13.668;2023-03-23T12:19:13;2.83;;;2.03;;
12171;SDS011;6149;52.418;13.668;2023-03-23T12:21:53;2.30;;;1.67;;
12171;SDS011;6149;52.418;13.668;2023-03-23T12:24:38;1.97;;;1.73;;
12171;SDS011;6149;52.418;13.668;2023-03-23T12:27:18;2.73;;;1.87;;
12171;SDS011;6149;52.418;13.668;2023-03-23T12:30:15;3.50;;;1.67;;
12171;SDS011;6149;52.418;13.668;2023-03-23T12:33:12;4.60;;;2.40;;
12171;SDS011;6149;52.418;13.668;2023-03-23T12:35:52;3.20;;;1.70;;
12171;SDS011;6149;52.418;13.668;2023-03-23T12:38:48;3.10;;;2.07;;
12171;SDS011;6149;52.418;13.668;2023-03-23T12:41:44;2.57;;;1.77;;
12171;SDS011;6149;52.418;13.668;2023-03-23T12:44:20;1.83;;;1.60;;
12171;SDS011;6149;52.418;13.668;2023-03-23T12:49:52;3.63;;;2.53;;
12171;SDS011;6149;52.418;13.668;2023-03-23T12:52:28;3.00;;;1.73;;
12171;SDS011;6149;52.418;13.668;2023-03-23T12:55:04;2.93;;;2.00;;
12171;SDS011;6149;52.418;13.668;2023-03-23T12:57:43;2.10;;;1.70;;
12171;SDS011;6149;52.418;13.668;2023-03-23T13:00:18;4.43;;;2.00;;
12171;SDS011;6149;52.418;13.668;2023-03-23T13:02:57;2.73;;;1.80;;
12171;SDS011;6149;52.418;13.668;2023-03-23T13:05:34;3.40;;;1.70;;
12171;SDS011;6149;52.418;13.668;2023-03-23T13:08:10;3.13;;;1.50;;
12171;SDS011;6149;52.418;13.668;2023-03-23T13:10:45;4.47;;;1.93;;
12171;SDS011;6149;52.418;13.668;2023-03-23T13:13:23;2.80;;;1.90;;
12171;SDS011;6149;52.418;13.668;2023-03-23T13:16:07;3.10;;;1.77;;
12171;SDS011;6149;52.418;13.668;2023-03-23T13:18:44;6.03;;;2.17;;
12171;SDS011;6149;52.418;13.668;2023-03-23T13:21:24;2.03;;;1.63;;
12171;SDS011;6149;52.418;13.668;2023-03-23T13:23:58;4.13;;;1.70;;
12171;SDS011;6149;52.418;13.668;2023-03-23T13:26:36;2.40;;;1.80;;
12171;SDS011;6149;52.418;13.668;2023-03-23T13:29:08;3.13;;;2.03;;
12171;SDS011;6149;52.418;13.668;2023-03-23T13:31:41;2.37;;;1.70;;
12171;SDS011;6149;52.418;13.668;2023-03-23T13:34:12;2.50;;;1.90;;
12171;SDS011;6149;52.418;13.668;2023-03-23T13:36:52;2.17;;;1.77;;
12171;SDS011;6149;52.418;13.668;2023-03-23T13:39:21;3.60;;;1.93;;
12171;SDS011;6149;52.418;13.668;2023-03-23T13:42:02;4.07;;;1.77;;
12171;SDS011;6149;52.418;13.668;2023-03-23T13:44:56;2.40;;;1.60;;
12171;SDS011;6149;52.418;13.668;2023-03-23T13:47:43;4.13;;;1.80;;
12171;SDS011;6149;52.418;13.668;2023-03-23T13:50:12;3.90;;;1.90;;
12171;SDS011;6149;52.418;13.668;2023-03-23T13:52:57;4.07;;;1.73;;
12171;SDS011;6149;52.418;13.668;2023-03-23T13:55:38;2.83;;;1.80;;
12171;SDS011;6149;52.418;13.668;2023-03-23T13:58:21;3.97;;;1.67;;
12171;SDS011;6149;52.418;13.668;2023-03-23T14:01:11;3.57;;;1.90;;
12171;SDS011;6149;52.418;13.668;2023-03-23T14:03:45;3.20;;;1.50;;
12171;SDS011;6149;52.418;13.668;2023-03-23T14:06:17;2.77;;;1.60;;
12171;SDS011;6149;52.418;13.668;2023-03-23T14:08:52;2.83;;;1.50;;
12171;SDS011;6149;52.418;13.668;2023-03-23T14:11:21;2.20;;;1.60;;
12171;SDS011;6149;52.418;13.668;2023-03-23T14:14:01;3.33;;;1.80;;
12171;SDS011;6149;52.418;13.668;2023-03-23T14:16:37;2.97;;;1.67;;
12171;SDS011;6149;52.418;13.668;2023-03-23T14:19:13;3.97;;;1.73;;
12171;SDS011;6149;52.418;13.668;2023-03-23T14:21:49;3.07;;;1.67;;
12171;SDS011;6149;52.418;13.668;2023-03-23T14:24:20;2.73;;;1.63;;
12171;SDS011;6149;52.418;13.668;2023-03-23T14:26:52;1.93;;;1.40;;
12171;SDS011;6149;52.418;13.668;2023-03-23T14:29:29;1.53;;;1.43;;
12171;SDS011;6149;52.418;13.668;2023-03-23T14:32:00;3.83;;;1.63;;
12171;SDS011;6149;52.418;13.668;2023-03-23T14:34:29;2.87;;;1.63;;
12171;SDS011;6149;52.418;13.668;2023-03-23T14:36:59;4.40;;;2.20;;
12171;SDS011;6149;52.418;13.668;2023-03-23T14:39:29;3.00;;;1.70;;
12171;SDS011;6149;52.418;13.668;2023-03-23T14:42:00;3.17;;;1.87;;
12171;SDS011;6149;52.418;13.668;2023-03-23T14:44:34;2.90;;;1.67;;
12171;SDS011;6149;52.418;13.668;2023-03-23T14:47:10;2.57;;;1.50;;
12171;SDS011;6149;52.418;13.668;2023-03-23T14:49:46;2.63;;;1.80;;
12171;SDS011;6149;52.418;13.668;2023-03-23T14:52:14;2.33;;;1.70;;
12171;SDS011;6149;52.418;13.668;2023-03-23T14:54:45;2.13;;;1.50;;
12171;SDS011;6149;52.418;13.668;2023-03-23T14:57:15;2.37;;;1.60;;
12171;SDS011;6149;52.418;13.668;2023-03-23T14:59:46;2.30;;;1.60;;
12171;SDS011;6149;52.418;13.668;2023-03-23T15:02:22;2.13;;;1.50;;
12171;SDS011;6149;52.418;13.668;2023-03-23T15:04:57;2.40;;;1.40;;
12171;SDS011;6149;52.418;13.668;2023-03-23T15:07:29;2.37;;;1.63;;
12171;SDS011;6149;52.418;13.668;2023-03-23T15:10:05;3.23;;;1.77;;
12171;SDS011;6149;52.418;13.668;2023-03-23T15:12:33;2.50;;;1.50;;
12171;SDS011;6149;52.418;13.668;2023-03-23T15:15:03;1.60;;;1.40;;
12171;SDS011;6149;52.418;13.668;2023-03-23T15:17:36;3.23;;;1.80;;
12171;SDS011;6149;52.418;13.668;2023-03-23T15:20:09;1.80;;;1.70;;
12171;SDS011;6149;52.418;13.668;2023-03-23T15:22:49;3.17;;;1.80;;
12171;SDS011;6149;52.418;13.668;2023-03-23T15:25:19;1.97;;;1.37;;
12171;SDS011;6149;52.418;13.668;2023-03-23T15:27:51;2.33;;;1.80;;
12171;SDS011;6149;52.418;13.668;2023-03-23T15:30:29;2.30;;;1.77;;
12171;SDS011;6149;52.418;13.668;2023-03-23T15:33:02;2.00;;;1.50;;